createdAt,value
2023-01-25T00:00:13.124Z,12.40
2023-01-25T00:02:41.585Z,9.83
2023-01-25T00:05:10.820Z,11.97
2023-01-25T00:07:40.634Z,13.50
2023-01-25T00:10:10.552Z,13.03
2023-01-25T00:12:42.092Z,13.37
2023-01-25T00:15:11.779Z,13.07
2023-01-25T00:17:40.263Z,11.00
2023-01-25T00:20:10.824Z,13.27
2023-01-25T00:22:40.550Z,15.47
2023-01-25T00:25:10.102Z,12.37
2023-01-25T00:27:38.648Z,10.33
2023-01-25T00:30:08.816Z,17.67
2023-01-25T00:32:55.472Z,14.30
2023-01-25T00:35:24.061Z,13.27
2023-01-25T00:37:55.509Z,12.27
2023-01-25T00:40:24.203Z,11.60
2023-01-25T00:42:53.222Z,11.83
2023-01-25T00:45:21.756Z,22.10
2023-01-25T00:47:50.589Z,12.83
2023-01-25T00:50:19.267Z,11.70
2023-01-25T00:52:47.651Z,10.20
2023-01-25T00:55:17.711Z,15.77
2023-01-25T00:57:46.137Z,12.93
2023-01-25T01:00:17.960Z,13.80
2023-01-25T01:02:46.480Z,12.57
2023-01-25T01:05:15.228Z,13.00
2023-01-25T01:07:44.055Z,14.60
2023-01-25T01:10:13.028Z,15.27
2023-01-25T01:12:42.829Z,14.33
2023-01-25T01:15:11.803Z,16.67
2023-01-25T01:17:40.140Z,16.33
2023-01-25T01:20:10.231Z,14.33
2023-01-25T01:22:38.585Z,14.60
2023-01-25T01:25:09.118Z,12.77
2023-01-25T01:27:37.737Z,17.37
2023-01-25T01:30:09.636Z,15.03
2023-01-25T01:32:38.049Z,15.63
2023-01-25T01:35:08.024Z,17.23
2023-01-25T01:37:36.787Z,15.87
2023-01-25T01:40:05.798Z,18.40
2023-01-25T01:42:34.380Z,14.60
2023-01-25T01:45:03.066Z,13.30
2023-01-25T01:47:46.173Z,14.73
2023-01-25T01:50:21.743Z,11.53
2023-01-25T01:52:50.776Z,13.20
2023-01-25T01:55:24.304Z,13.37
2023-01-25T01:57:58.174Z,16.40
2023-01-25T02:00:30.869Z,11.70
2023-01-25T02:03:01.223Z,13.30
2023-01-25T02:05:35.856Z,13.17
2023-01-25T02:08:06.879Z,15.50
2023-01-25T02:10:37.174Z,18.67
2023-01-25T02:13:05.546Z,22.93
2023-01-25T02:15:42.630Z,11.10
2023-01-25T02:18:13.802Z,13.77
2023-01-25T02:20:45.259Z,18.57
2023-01-25T02:23:22.852Z,23.00
2023-01-25T02:25:53.664Z,18.83
2023-01-25T02:28:26.627Z,14.33
2023-01-25T02:30:55.887Z,19.23
2023-01-25T02:33:25.988Z,11.73
2023-01-25T02:36:08.574Z,14.77
2023-01-25T02:38:40.481Z,15.13
2023-01-25T02:41:15.404Z,13.30
2023-01-25T02:43:44.048Z,11.50
2023-01-25T02:46:19.469Z,13.30
2023-01-25T02:48:48.207Z,12.40
2023-01-25T02:51:16.826Z,11.27
2023-01-25T02:53:48.064Z,11.70
2023-01-25T02:56:18.590Z,12.30
2023-01-25T02:58:47.664Z,9.67
2023-01-25T03:01:16.514Z,11.13
2023-01-25T03:03:45.335Z,16.30
2023-01-25T03:06:13.784Z,14.63
2023-01-25T03:08:42.326Z,10.80
2023-01-25T03:11:10.835Z,15.83
2023-01-25T03:13:40.708Z,9.73
2023-01-25T03:16:12.191Z,10.80
2023-01-25T03:18:41.865Z,11.43
2023-01-25T03:21:13.123Z,11.27
2023-01-25T03:23:42.551Z,31.27
2023-01-25T03:26:13.951Z,12.80
2023-01-25T03:28:45.094Z,11.73
2023-01-25T03:31:17.838Z,12.97
2023-01-25T03:33:47.121Z,12.47
2023-01-25T03:36:16.055Z,13.30
2023-01-25T03:38:45.368Z,12.73
2023-01-25T03:41:15.130Z,12.33
2023-01-25T03:43:45.793Z,18.73
2023-01-25T03:46:15.583Z,15.07
2023-01-25T03:48:44.957Z,11.40
2023-01-25T03:51:13.939Z,10.47
2023-01-25T03:53:43.838Z,12.30
2023-01-25T03:56:20.606Z,12.67
2023-01-25T03:58:51.231Z,15.87
2023-01-25T04:01:20.515Z,13.07
2023-01-25T04:03:50.193Z,11.40
2023-01-25T04:06:19.671Z,13.70
2023-01-25T04:08:49.100Z,12.00
2023-01-25T04:11:19.143Z,13.63
2023-01-25T04:13:49.997Z,10.60
2023-01-25T04:16:19.413Z,13.13
2023-01-25T04:18:49.083Z,12.87
2023-01-25T04:21:18.129Z,11.67
2023-01-25T04:23:46.939Z,16.23
2023-01-25T04:26:16.490Z,15.57
2023-01-25T04:28:45.742Z,14.83
2023-01-25T04:31:16.409Z,16.50
2023-01-25T04:33:49.058Z,12.63
2023-01-25T04:36:19.344Z,10.93
2023-01-25T04:38:49.349Z,13.20
2023-01-25T04:41:18.978Z,9.17
2023-01-25T04:43:47.920Z,11.33
2023-01-25T04:46:21.206Z,14.70
2023-01-25T04:48:50.426Z,11.67
2023-01-25T04:51:18.696Z,13.77
2023-01-25T04:53:46.987Z,11.63
2023-01-25T04:56:18.552Z,10.27
2023-01-25T04:58:46.545Z,10.20
2023-01-25T05:01:15.934Z,12.90
2023-01-25T05:03:45.298Z,10.50
2023-01-25T05:06:13.270Z,10.73
2023-01-25T05:08:41.303Z,12.57
2023-01-25T05:11:09.286Z,13.43
2023-01-25T05:13:37.258Z,12.20
2023-01-25T05:16:07.690Z,11.43
2023-01-25T05:18:47.843Z,11.60
2023-01-25T05:21:31.916Z,13.00
2023-01-25T05:24:00.289Z,15.67
2023-01-25T05:26:45.879Z,16.40
2023-01-25T05:29:14.087Z,15.33
2023-01-25T05:31:42.076Z,14.33
2023-01-25T05:34:10.754Z,15.20
2023-01-25T05:36:40.062Z,12.67
2023-01-25T05:39:09.033Z,11.83
2023-01-25T05:41:37.146Z,17.40
2023-01-25T05:44:05.732Z,17.93
2023-01-25T05:46:33.743Z,14.77
2023-01-25T05:49:01.829Z,10.17
2023-01-25T05:51:29.970Z,12.17
2023-01-25T05:53:59.408Z,10.07
2023-01-25T05:56:27.418Z,14.00
2023-01-25T05:58:55.772Z,14.37
2023-01-25T06:01:24.222Z,13.30
2023-01-25T06:03:52.655Z,12.60
2023-01-25T06:06:21.067Z,14.30
2023-01-25T06:08:49.848Z,15.00
2023-01-25T06:11:22.639Z,14.97
2023-01-25T06:13:51.985Z,13.20
2023-01-25T06:16:21.174Z,14.80
2023-01-25T06:18:49.181Z,17.00
2023-01-25T06:21:17.233Z,17.20
2023-01-25T06:23:46.338Z,15.77
2023-01-25T06:26:15.976Z,13.63
2023-01-25T06:28:45.327Z,14.60
2023-01-25T06:31:15.593Z,15.23
2023-01-25T06:33:44.303Z,16.07
2023-01-25T06:36:15.102Z,14.80
2023-01-25T06:38:43.996Z,13.80
2023-01-25T06:41:13.139Z,18.97
2023-01-25T06:43:41.319Z,16.60
2023-01-25T06:46:12.637Z,19.27
2023-01-25T06:48:41.739Z,18.00
2023-01-25T06:51:11.801Z,14.77
2023-01-25T06:53:43.748Z,14.53
2023-01-25T06:56:14.906Z,17.10
2023-01-25T06:58:43.043Z,12.53
2023-01-25T07:01:19.621Z,12.27
2023-01-25T07:03:50.166Z,15.43
2023-01-25T07:06:19.353Z,15.33
2023-01-25T07:08:47.831Z,11.90
2023-01-25T07:11:19.005Z,10.73
2023-01-25T07:13:49.228Z,11.33
2023-01-25T07:16:21.710Z,12.73
2023-01-25T07:18:50.486Z,14.40
2023-01-25T07:21:21.347Z,11.67
2023-01-25T07:23:50.768Z,18.43
2023-01-25T07:26:21.805Z,25.43
2023-01-25T07:28:50.949Z,20.80
2023-01-25T07:31:21.729Z,17.43
2023-01-25T07:33:50.329Z,16.93
2023-01-25T07:36:19.140Z,13.93
2023-01-25T07:38:47.505Z,18.17
2023-01-25T07:41:16.352Z,22.97
2023-01-25T07:43:44.471Z,14.67
2023-01-25T07:46:15.457Z,15.57
2023-01-25T07:48:48.507Z,20.20
2023-01-25T07:51:26.981Z,21.23
2023-01-25T07:53:57.183Z,19.37
2023-01-25T07:56:27.678Z,16.77
2023-01-25T07:58:57.005Z,20.17
2023-01-25T08:01:27.716Z,23.73
2023-01-25T08:03:57.952Z,16.23
2023-01-25T08:06:30.577Z,11.47
2023-01-25T08:09:00.135Z,15.90
2023-01-25T08:11:30.597Z,24.27
2023-01-25T08:13:58.736Z,11.23
2023-01-25T08:16:29.911Z,16.67
2023-01-25T08:19:01.186Z,16.90
2023-01-25T08:21:32.526Z,15.23
2023-01-25T08:24:03.555Z,15.77
2023-01-25T08:26:33.198Z,15.40
2023-01-25T08:29:01.427Z,18.70
2023-01-25T08:31:31.694Z,14.37
2023-01-25T08:34:02.262Z,17.60
2023-01-25T08:36:30.645Z,15.37
2023-01-25T08:39:22.964Z,16.07
2023-01-25T08:42:14.331Z,18.10
2023-01-25T08:44:42.943Z,13.13
2023-01-25T08:47:11.058Z,19.50
2023-01-25T08:49:40.415Z,15.33
2023-01-25T08:52:08.594Z,16.53
2023-01-25T08:54:36.667Z,13.03
2023-01-25T08:57:06.231Z,17.40
2023-01-25T08:59:35.010Z,20.63
2023-01-25T09:02:04.379Z,15.50
2023-01-25T09:04:33.024Z,13.03
2023-01-25T09:07:02.357Z,20.37
2023-01-25T09:09:34.374Z,15.53
2023-01-25T09:12:03.034Z,14.50
2023-01-25T09:14:31.072Z,15.00
2023-01-25T09:16:59.052Z,13.00
2023-01-25T09:19:27.151Z,13.50
2023-01-25T09:21:55.216Z,14.73
2023-01-25T09:24:52.151Z,13.77
2023-01-25T09:27:20.432Z,11.33
2023-01-25T09:30:01.034Z,11.13
2023-01-25T09:32:31.879Z,14.47
2023-01-25T09:34:59.968Z,13.80
2023-01-25T09:37:28.115Z,8.70
2023-01-25T09:39:57.433Z,10.93
2023-01-25T09:42:46.641Z,13.00
2023-01-25T09:45:31.726Z,12.73
2023-01-25T09:48:17.827Z,10.33
2023-01-25T09:51:07.274Z,10.33
2023-01-25T09:53:38.200Z,7.90
2023-01-25T09:56:14.659Z,6.80
2023-01-25T09:58:47.144Z,7.50
2023-01-25T10:01:38.239Z,13.90
2023-01-25T10:04:16.255Z,8.40
2023-01-25T10:06:59.722Z,10.43
2023-01-25T10:09:42.438Z,10.40
2023-01-25T10:12:17.908Z,11.67
2023-01-25T10:14:45.950Z,13.80
2023-01-25T10:17:30.294Z,11.13
2023-01-25T10:20:24.084Z,13.10
2023-01-25T10:23:05.768Z,11.13
2023-01-25T10:25:41.708Z,9.47
2023-01-25T10:28:30.019Z,10.43
2023-01-25T10:31:02.351Z,11.10
2023-01-25T10:33:36.311Z,9.97
2023-01-25T10:36:07.052Z,9.50
2023-01-25T10:38:42.470Z,9.60
2023-01-25T10:41:19.163Z,8.07
2023-01-25T10:44:08.810Z,13.97
2023-01-25T10:46:39.066Z,9.50
2023-01-25T10:49:23.243Z,8.67
2023-01-25T10:51:51.380Z,9.70
2023-01-25T10:54:19.655Z,14.00
2023-01-25T10:56:48.902Z,9.43
2023-01-25T10:59:24.126Z,9.23
2023-01-25T11:01:52.940Z,8.57
2023-01-25T11:04:34.815Z,9.50
2023-01-25T11:07:06.013Z,8.47
2023-01-25T11:09:38.395Z,10.97
2023-01-25T11:12:18.944Z,8.37
2023-01-25T11:14:50.772Z,9.47
2023-01-25T11:17:30.059Z,11.97
2023-01-25T11:20:20.289Z,11.80
2023-01-25T11:22:53.987Z,10.23
2023-01-25T11:25:31.964Z,12.40
2023-01-25T11:28:18.152Z,15.37
2023-01-25T11:30:48.961Z,13.87
2023-01-25T11:33:20.601Z,14.10
2023-01-25T11:36:22.914Z,17.90
2023-01-25T11:39:14.175Z,16.93
2023-01-25T11:42:08.037Z,11.33
2023-01-25T11:45:06.101Z,15.47
2023-01-25T11:47:54.427Z,10.30
2023-01-25T11:50:30.565Z,15.30
2023-01-25T11:53:21.939Z,17.27
2023-01-25T11:55:56.984Z,13.70
2023-01-25T11:58:44.113Z,17.80
2023-01-25T12:01:20.095Z,13.67
2023-01-25T12:04:40.377Z,13.77
2023-01-25T12:07:17.624Z,17.40
2023-01-25T12:10:05.150Z,18.07
2023-01-25T12:12:44.098Z,19.53
2023-01-25T12:15:42.341Z,11.27
2023-01-25T12:18:52.260Z,18.17
2023-01-25T12:21:39.498Z,16.00
2023-01-25T12:24:25.474Z,22.80
2023-01-25T12:27:01.668Z,14.37
2023-01-25T12:29:36.197Z,13.20
2023-01-25T12:32:10.391Z,16.73
2023-01-25T12:34:41.953Z,13.67
2023-01-25T12:37:17.921Z,30.77
2023-01-25T12:39:51.048Z,14.83
2023-01-25T12:42:25.908Z,17.07
2023-01-25T12:45:00.938Z,19.60
2023-01-25T12:47:36.047Z,20.57
2023-01-25T12:50:15.811Z,18.40
2023-01-25T12:52:50.408Z,17.40
2023-01-25T12:55:19.870Z,46.77
2023-01-25T12:57:57.907Z,19.73
2023-01-25T13:00:34.696Z,14.60
2023-01-25T13:03:22.322Z,18.77
2023-01-25T13:05:55.182Z,17.70
2023-01-25T13:08:37.104Z,18.60
2023-01-25T13:11:15.964Z,11.00
2023-01-25T13:13:44.251Z,12.80
2023-01-25T13:16:41.053Z,12.37
2023-01-25T13:19:22.077Z,11.40
2023-01-25T13:21:52.850Z,12.83
2023-01-25T13:24:25.117Z,12.03
2023-01-25T13:27:06.290Z,14.80
2023-01-25T13:30:03.372Z,16.77
2023-01-25T13:33:07.238Z,18.83
2023-01-25T13:35:44.432Z,15.57
2023-01-25T13:38:39.389Z,15.20
2023-01-25T13:41:19.257Z,16.30
2023-01-25T13:43:54.100Z,13.30
2023-01-25T13:46:25.087Z,14.50
2023-01-25T13:49:05.379Z,13.70
2023-01-25T13:51:40.149Z,16.40
2023-01-25T13:54:16.702Z,15.80
2023-01-25T13:56:46.246Z,22.33
2023-01-25T13:59:28.576Z,17.97
2023-01-25T14:01:57.190Z,23.37
2023-01-25T14:04:25.571Z,15.27
2023-01-25T14:06:58.147Z,10.13
2023-01-25T14:09:26.704Z,11.90
2023-01-25T14:11:59.653Z,13.60
2023-01-25T14:14:33.219Z,12.10
2023-01-25T14:17:17.248Z,10.00
2023-01-25T14:19:49.622Z,10.07
2023-01-25T14:22:25.753Z,8.70
2023-01-25T14:25:12.691Z,11.43
2023-01-25T14:27:47.615Z,10.10
2023-01-25T14:30:22.660Z,11.43
2023-01-25T14:32:52.802Z,8.47
2023-01-25T14:35:54.351Z,16.00
2023-01-25T14:38:28.390Z,12.77
2023-01-25T14:41:01.825Z,9.93
2023-01-25T14:43:32.556Z,12.40
2023-01-25T14:46:00.993Z,11.00
2023-01-25T14:48:43.037Z,12.47
2023-01-25T14:51:27.572Z,10.93
2023-01-25T14:54:02.612Z,13.60
2023-01-25T14:56:36.456Z,20.07
2023-01-25T14:59:07.360Z,17.43
2023-01-25T15:01:40.463Z,18.20
2023-01-25T15:04:13.614Z,16.83
2023-01-25T15:06:49.984Z,18.43
2023-01-25T15:10:02.973Z,14.57
2023-01-25T15:12:32.885Z,25.13
2023-01-25T15:15:02.836Z,17.63
2023-01-25T15:17:42.945Z,12.80
2023-01-25T15:20:36.270Z,20.97
2023-01-25T15:23:24.941Z,21.43
2023-01-25T15:25:55.511Z,29.07
2023-01-25T15:28:25.466Z,19.00
2023-01-25T15:30:57.559Z,22.47
2023-01-25T15:33:28.899Z,20.83
2023-01-25T15:35:58.670Z,19.60
2023-01-25T15:38:27.051Z,18.60
2023-01-25T15:41:00.278Z,19.17
2023-01-25T15:43:28.627Z,39.27
2023-01-25T15:45:58.080Z,19.97
2023-01-25T15:48:31.626Z,24.40
2023-01-25T15:50:59.927Z,28.20
2023-01-25T15:53:28.524Z,29.50
2023-01-25T15:56:00.306Z,25.00
2023-01-25T15:58:31.675Z,28.80
2023-01-25T16:01:01.388Z,19.37
2023-01-25T16:03:30.288Z,26.10
2023-01-25T16:06:03.095Z,28.37
2023-01-25T16:08:32.009Z,24.60
2023-01-25T16:11:00.061Z,24.33
2023-01-25T16:13:28.081Z,23.13
2023-01-25T16:15:58.170Z,20.77
2023-01-25T16:18:27.574Z,20.03
2023-01-25T16:20:55.533Z,27.60
2023-01-25T16:23:23.545Z,22.60
2023-01-25T16:25:51.641Z,22.10
2023-01-25T16:28:19.649Z,22.33
2023-01-25T16:30:47.697Z,20.30
2023-01-25T16:33:15.765Z,20.70
2023-01-25T16:35:45.181Z,25.97
2023-01-25T16:38:13.593Z,29.70
2023-01-25T16:40:41.775Z,24.70
2023-01-25T16:43:09.941Z,24.10
2023-01-25T16:45:39.722Z,20.17
2023-01-25T16:48:08.286Z,20.37
2023-01-25T16:50:37.818Z,18.40
2023-01-25T16:53:07.408Z,25.93
2023-01-25T16:55:38.261Z,33.37
2023-01-25T16:58:06.378Z,17.93
2023-01-25T17:00:34.462Z,26.53
2023-01-25T17:03:02.511Z,29.33
2023-01-25T17:05:32.891Z,30.40
2023-01-25T17:08:01.097Z,21.77
2023-01-25T17:10:34.690Z,27.03
2023-01-25T17:13:02.974Z,27.57
2023-01-25T17:15:31.272Z,47.83
2023-01-25T17:17:59.539Z,24.73
2023-01-25T17:20:29.068Z,23.43
2023-01-25T17:22:57.393Z,29.03
2023-01-25T17:25:26.369Z,25.27
2023-01-25T17:27:56.048Z,34.50
2023-01-25T17:30:24.102Z,26.90
2023-01-25T17:32:52.092Z,28.80
2023-01-25T17:35:20.146Z,27.33
2023-01-25T17:37:48.148Z,29.60
2023-01-25T17:40:16.568Z,27.33
2023-01-25T17:42:44.564Z,22.93
2023-01-25T17:45:13.976Z,24.73
2023-01-25T17:47:41.948Z,25.93
2023-01-25T17:50:11.954Z,29.53
2023-01-25T17:52:40.208Z,27.43
2023-01-25T17:55:10.327Z,27.57
2023-01-25T17:57:38.308Z,27.57
2023-01-25T18:00:11.735Z,26.33
2023-01-25T18:02:44.906Z,24.67
2023-01-25T18:05:13.951Z,33.47
2023-01-25T18:07:41.975Z,25.83
2023-01-25T18:10:11.662Z,26.37
2023-01-25T18:12:40.000Z,30.73
2023-01-25T18:15:09.899Z,29.33
2023-01-25T18:17:39.096Z,32.97
2023-01-25T18:20:15.716Z,33.87
2023-01-25T18:22:44.276Z,28.37
2023-01-25T18:25:33.637Z,34.07
2023-01-25T18:28:01.839Z,24.57
2023-01-25T18:30:37.341Z,32.03
2023-01-25T18:33:06.046Z,30.17
2023-01-25T18:35:36.067Z,29.00
2023-01-25T18:38:04.114Z,31.37
2023-01-25T18:40:32.171Z,22.57
2023-01-25T18:43:00.223Z,26.30
2023-01-25T18:45:28.390Z,22.80
2023-01-25T18:47:56.396Z,28.07
2023-01-25T18:50:24.431Z,27.07
2023-01-25T18:52:55.714Z,29.23
2023-01-25T18:55:23.760Z,19.67
2023-01-25T18:57:51.820Z,28.83
2023-01-25T19:00:20.322Z,32.97
2023-01-25T19:02:48.381Z,21.90
2023-01-25T19:05:18.564Z,31.33
2023-01-25T19:07:46.653Z,29.57
2023-01-25T19:10:16.225Z,26.67
2023-01-25T19:12:44.325Z,37.27
2023-01-25T19:15:13.037Z,34.70
2023-01-25T19:17:41.121Z,25.23
2023-01-25T19:20:11.276Z,34.87
2023-01-25T19:22:40.499Z,24.20
2023-01-25T19:25:09.888Z,26.10
2023-01-25T19:27:39.389Z,19.73
2023-01-25T19:30:09.351Z,32.87
2023-01-25T19:32:37.371Z,27.20
2023-01-25T19:35:07.722Z,32.83
2023-01-25T19:37:35.956Z,43.93
2023-01-25T19:40:04.308Z,20.80
2023-01-25T19:42:32.688Z,23.43
2023-01-25T19:45:02.962Z,22.33
2023-01-25T19:47:30.965Z,33.17
2023-01-25T19:50:00.330Z,61.07
2023-01-25T19:52:28.427Z,56.00
2023-01-25T19:54:56.432Z,35.10
2023-01-25T19:57:24.520Z,22.77
2023-01-25T19:59:52.598Z,22.30
2023-01-25T20:02:21.985Z,21.40
2023-01-25T20:04:51.487Z,19.77
2023-01-25T20:07:19.667Z,21.03
2023-01-25T20:09:47.737Z,11.23
2023-01-25T20:12:15.770Z,15.63
2023-01-25T20:14:44.300Z,16.43
2023-01-25T20:17:12.439Z,23.20
2023-01-25T20:19:42.683Z,18.97
2023-01-25T20:22:12.464Z,16.30
2023-01-25T20:24:40.554Z,19.40
2023-01-25T20:27:08.818Z,27.53
2023-01-25T20:29:37.158Z,21.00
2023-01-25T20:32:05.794Z,20.77
2023-01-25T20:34:33.960Z,21.50
2023-01-25T20:37:03.323Z,16.27
2023-01-25T20:39:31.368Z,16.13
2023-01-25T20:41:59.966Z,15.53
2023-01-25T20:44:29.878Z,12.20
2023-01-25T20:46:58.185Z,15.83
2023-01-25T20:49:26.222Z,18.80
2023-01-25T20:51:54.219Z,15.47
2023-01-25T20:54:23.693Z,21.43
2023-01-25T20:56:51.827Z,12.70
2023-01-25T20:59:19.841Z,10.63
2023-01-25T21:01:47.964Z,19.23
2023-01-25T21:04:16.005Z,13.60
2023-01-25T21:06:44.050Z,11.73
2023-01-25T21:09:13.421Z,7.50
2023-01-25T21:11:43.032Z,6.90
2023-01-25T21:14:11.162Z,6.30
2023-01-25T21:16:39.181Z,5.97
2023-01-25T21:19:08.188Z,7.90
2023-01-25T21:21:38.136Z,11.53
2023-01-25T21:24:07.484Z,8.43
2023-01-25T21:26:38.766Z,8.00
2023-01-25T21:29:08.545Z,7.70
2023-01-25T21:31:39.217Z,6.60
2023-01-25T21:34:09.171Z,6.60
2023-01-25T21:36:37.493Z,8.40
2023-01-25T21:39:05.663Z,5.03
2023-01-25T21:41:34.303Z,10.57
2023-01-25T21:44:20.977Z,5.27
2023-01-25T21:49:56.123Z,9.07
2023-01-25T21:52:24.217Z,6.00
2023-01-25T21:54:52.216Z,7.90
2023-01-25T21:57:20.555Z,5.80
2023-01-25T21:59:48.852Z,6.43
2023-01-25T22:02:18.506Z,11.10
2023-01-25T22:04:46.652Z,12.10
2023-01-25T22:07:14.665Z,20.63
2023-01-25T22:09:42.760Z,11.00
2023-01-25T22:12:12.265Z,10.30
2023-01-25T22:14:40.549Z,14.77
2023-01-25T22:17:16.208Z,12.50
2023-01-25T22:19:44.265Z,10.50
2023-01-25T22:22:12.284Z,13.83
2023-01-25T22:24:40.341Z,18.40
2023-01-25T22:27:32.717Z,15.70
2023-01-25T22:30:00.778Z,22.53
2023-01-25T22:32:30.203Z,15.20
2023-01-25T22:34:58.224Z,20.47
2023-01-25T22:37:26.289Z,12.30
2023-01-25T22:39:58.226Z,13.90
2023-01-25T22:42:26.453Z,15.50
2023-01-25T22:44:54.491Z,15.67
2023-01-25T22:47:22.527Z,7.80
2023-01-25T22:49:51.871Z,7.70
2023-01-25T22:52:19.898Z,11.10
2023-01-25T22:54:50.144Z,14.73
2023-01-25T22:57:18.305Z,7.77
2023-01-25T22:59:46.366Z,6.80
2023-01-25T23:02:14.452Z,7.50
2023-01-25T23:04:42.534Z,6.83
2023-01-25T23:07:18.882Z,5.10
2023-01-25T23:09:51.281Z,10.53
2023-01-25T23:12:19.802Z,9.00
2023-01-25T23:14:54.073Z,3.43
2023-01-25T23:17:41.917Z,4.20
2023-01-25T23:20:13.342Z,6.90
2023-01-25T23:22:42.811Z,5.10
2023-01-25T23:25:12.450Z,5.20
2023-01-25T23:27:40.702Z,2.90
2023-01-25T23:30:11.517Z,4.17
2023-01-25T23:32:39.759Z,3.47
2023-01-25T23:35:08.894Z,6.50
2023-01-25T23:37:36.916Z,6.10
2023-01-25T23:40:08.839Z,4.10
2023-01-25T23:42:38.176Z,2.93
2023-01-25T23:45:07.899Z,7.67
2023-01-25T23:47:36.015Z,3.83
2023-01-25T23:50:04.595Z,4.87
2023-01-25T23:52:32.725Z,4.10
2023-01-25T23:55:00.700Z,6.03
2023-01-25T23:57:30.365Z,4.70
2023-01-25T23:59:58.406Z,6.77
